TimeBST,TemperatureF,Dew PointF,Humidity,Sea Level PressureIn,VisibilityMPH,Wind Direction,Wind SpeedMPH,Gust SpeedMPH,PrecipitationIn,Events,Conditions,WindDirDegrees,DateUTC
12:50 AM,51,50,96,29.62,4,SE,6.9,,,,Mist,140,2013-10-20 23:50:00
6:20 AM,51.8,50.0,94,29.59,6.2,SSE,6.9,-,N/A,,Light Drizzle,150,2013-10-21 05:20:00
6:50 AM,51,50,97,29.60,9,SSE,5.8,,,,,150,2013-10-21 05:50:00
6:50 AM,51.8,50.0,94,29.59,6.2,SE,5.8,-,N/A,,Scattered Clouds,140,2013-10-21 05:50:00
9:50 AM,54,53,97,29.52,4,ESE,10.4,,,Rain,Rain,120,2013-10-21 08:50:00
11:20 AM,57.2,55.4,94,29.47,5.6,SSE,10.4,-,N/A,Thunderstorm,Thunderstorm,150,2013-10-21 10:20:00
11:50 AM,59.0,57.2,94,29.44,6.2,SSE,11.5,-,N/A,,Mostly Cloudy,150,2013-10-21 10:50:00
12:50 PM,61,59,92,29.46,22,SSE,10.4,,,Rain,Rain,150,2013-10-21 11:50:00
12:50 PM,60.8,57.2,88,29.44,6.2,SSE,12.7,-,N/A,,Scattered Clouds,150,2013-10-21 11:50:00
1:20 PM,62.6,59.0,88,29.44,6.2,SSE,9.2,-,N/A,,Partly Cloudy,150,2013-10-21 12:20:00
1:50 PM,60.8,57.2,88,29.44,6.2,SSE,12.7,-,N/A,,Scattered Clouds,160,2013-10-21 12:50:00
2:20 PM,66.2,59.0,78,29.44,6.2,SSE,13.8,-,N/A,,Scattered Clouds,160,2013-10-21 13:20:00
2:50 PM,66.2,59.0,78,29.44,6.2,South,11.5,-,N/A,,Scattered Clouds,170,2013-10-21 13:50:00
3:20 PM,66.2,59.0,78,29.44,6.2,SSE,11.5,-,N/A,Rain,Light Rain Showers,150,2013-10-21 14:20:00
3:50 PM,64,59,80,29.45,14,SSE,11.5,,,Rain,Light Rain Showers,160,2013-10-21 14:50:00
3:50 PM,64.4,62.6,94,29.44,6.2,SSE,11.5,-,N/A,Rain,Light Rain Showers,160,2013-10-21 14:50:00
4:20 PM,62.6,59.0,88,29.44,6.2,SSE,10.4,-,N/A,Rain,Light Rain Showers,160,2013-10-21 15:20:00
4:50 PM,64.4,60.8,88,29.44,6.2,South,12.7,-,N/A,Rain,Light Rain Showers,170,2013-10-21 15:50:00
5:20 PM,62.6,60.8,94,29.44,6.2,South,12.7,-,N/A,,Partly Cloudy,180,2013-10-21 16:20:00
5:50 PM,62.6,59.0,88,29.44,6.2,SSE,9.2,-,N/A,,Partly Cloudy,150,2013-10-21 16:50:00
6:50 PM,61,58,88,29.46,19,SSE,11.5,,,,Scattered Clouds,160,2013-10-21 17:50:00
6:50 PM,60.8,59.0,94,29.44,6.2,SSE,11.5,-,N/A,,Partly Cloudy,160,2013-10-21 17:50:00
7:20 PM,62.6,60.8,94,29.44,6.2,SSE,10.4,-,N/A,,Partly Cloudy,150,2013-10-21 18:20:00
7:50 PM,60.8,57.2,88,29.44,6.2,SSE,15.0,-,N/A,,Partly Cloudy,160,2013-10-21 18:50:00
9:50 PM,60,58,92,29.43,6,SE,13.8,,,Rain,Rain,140,2013-10-21 20:50:00